sensor_id;sensor_type;location;lat;lon;timestamp;P1;durP1;ratioP1;P2;durP2;ratioP2
47625;SDS011;33342;45.574;9.252;2022-12-18T00:01:20;25.23;;;15.57;;
47625;SDS011;33342;45.574;9.252;2022-12-18T00:03:52;25.77;;;16.38;;
47625;SDS011;33342;45.574;9.252;2022-12-18T00:06:21;24.85;;;15.23;;
47625;SDS011;33342;45.574;9.252;2022-12-18T00:08:49;23.73;;;16.02;;
47625;SDS011;33342;45.574;9.252;2022-12-18T00:11:18;22.65;;;15.32;;
47625;SDS011;33342;45.574;9.252;2022-12-18T00:13:47;22.83;;;15.75;;
47625;SDS011;33342;45.574;9.252;2022-12-18T00:16:15;22.98;;;15.02;;
47625;SDS011;33342;45.574;9.252;2022-12-18T00:18:47;23.42;;;15.88;;
47625;SDS011;33342;45.574;9.252;2022-12-18T00:21:15;23.23;;;15.20;;
47625;SDS011;33342;45.574;9.252;2022-12-18T00:23:43;24.40;;;15.55;;
47625;SDS011;33342;45.574;9.252;2022-12-18T00:26:18;26.38;;;15.98;;
47625;SDS011;33342;45.574;9.252;2022-12-18T00:28:52;22.48;;;15.00;;
47625;SDS011;33342;45.574;9.252;2022-12-18T00:31:21;24.35;;;15.70;;
47625;SDS011;33342;45.574;9.252;2022-12-18T00:33:53;22.92;;;15.00;;
47625;SDS011;33342;45.574;9.252;2022-12-18T00:36:22;22.67;;;15.15;;
47625;SDS011;33342;45.574;9.252;2022-12-18T00:38:53;24.88;;;15.25;;
47625;SDS011;33342;45.574;9.252;2022-12-18T00:41:40;26.67;;;15.38;;
47625;SDS011;33342;45.574;9.252;2022-12-18T00:44:25;22.70;;;15.50;;
47625;SDS011;33342;45.574;9.252;2022-12-18T00:46:52;26.40;;;16.52;;
47625;SDS011;33342;45.574;9.252;2022-12-18T00:49:19;26.98;;;16.42;;
47625;SDS011;33342;45.574;9.252;2022-12-18T00:51:48;25.58;;;15.77;;
47625;SDS011;33342;45.574;9.252;2022-12-18T00:54:16;24.58;;;15.93;;
47625;SDS011;33342;45.574;9.252;2022-12-18T00:56:44;25.20;;;15.07;;
47625;SDS011;33342;45.574;9.252;2022-12-18T00:59:15;24.60;;;15.77;;
47625;SDS011;33342;45.574;9.252;2022-12-18T01:01:44;24.98;;;15.57;;
47625;SDS011;33342;45.574;9.252;2022-12-18T01:04:11;24.23;;;15.60;;
47625;SDS011;33342;45.574;9.252;2022-12-18T01:06:38;23.10;;;14.98;;
47625;SDS011;33342;45.574;9.252;2022-12-18T01:09:06;23.15;;;15.43;;
47625;SDS011;33342;45.574;9.252;2022-12-18T01:11:35;23.25;;;15.00;;
47625;SDS011;33342;45.574;9.252;2022-12-18T01:14:03;24.30;;;15.48;;
47625;SDS011;33342;45.574;9.252;2022-12-18T01:16:30;28.17;;;15.77;;
47625;SDS011;33342;45.574;9.252;2022-12-18T01:18:57;23.30;;;14.45;;
47625;SDS011;33342;45.574;9.252;2022-12-18T01:21:26;22.63;;;14.70;;
47625;SDS011;33342;45.574;9.252;2022-12-18T01:23:54;20.27;;;14.13;;
47625;SDS011;33342;45.574;9.252;2022-12-18T01:26:23;28.42;;;16.15;;
47625;SDS011;33342;45.574;9.252;2022-12-18T01:28:51;23.10;;;15.40;;
47625;SDS011;33342;45.574;9.252;2022-12-18T01:31:23;22.50;;;14.95;;
47625;SDS011;33342;45.574;9.252;2022-12-18T01:33:54;23.70;;;15.43;;
47625;SDS011;33342;45.574;9.252;2022-12-18T01:36:23;22.67;;;14.40;;
47625;SDS011;33342;45.574;9.252;2022-12-18T01:38:55;22.92;;;14.60;;
47625;SDS011;33342;45.574;9.252;2022-12-18T01:41:24;22.70;;;14.65;;
47625;SDS011;33342;45.574;9.252;2022-12-18T01:47:20;27.25;;;16.15;;
47625;SDS011;33342;45.574;9.252;2022-12-18T01:49:53;26.00;;;15.85;;
47625;SDS011;33342;45.574;9.252;2022-12-18T01:52:22;22.77;;;15.65;;
47625;SDS011;33342;45.574;9.252;2022-12-18T01:54:53;24.42;;;15.00;;
47625;SDS011;33342;45.574;9.252;2022-12-18T01:57:21;26.23;;;16.13;;
47625;SDS011;33342;45.574;9.252;2022-12-18T01:59:50;23.67;;;15.23;;
47625;SDS011;33342;45.574;9.252;2022-12-18T02:02:20;25.63;;;16.05;;
47625;SDS011;33342;45.574;9.252;2022-12-18T02:04:47;20.42;;;14.18;;
47625;SDS011;33342;45.574;9.252;2022-12-18T02:16:01;23.80;;;14.63;;
47625;SDS011;33342;45.574;9.252;2022-12-18T02:18:32;24.00;;;14.95;;
47625;SDS011;33342;45.574;9.252;2022-12-18T02:21:12;23.90;;;14.38;;
47625;SDS011;33342;45.574;9.252;2022-12-18T02:26:53;21.67;;;14.38;;
47625;SDS011;33342;45.574;9.252;2022-12-18T02:29:31;24.85;;;15.98;;
47625;SDS011;33342;45.574;9.252;2022-12-18T02:32:04;22.75;;;15.20;;
47625;SDS011;33342;45.574;9.252;2022-12-18T02:34:37;24.85;;;15.32;;
47625;SDS011;33342;45.574;9.252;2022-12-18T02:37:12;24.02;;;15.00;;
47625;SDS011;33342;45.574;9.252;2022-12-18T02:39:42;25.63;;;16.42;;
47625;SDS011;33342;45.574;9.252;2022-12-18T02:42:14;25.52;;;16.25;;
47625;SDS011;33342;45.574;9.252;2022-12-18T02:44:44;26.50;;;17.30;;
47625;SDS011;33342;45.574;9.252;2022-12-18T02:47:19;25.83;;;16.23;;
47625;SDS011;33342;45.574;9.252;2022-12-18T02:55:08;26.45;;;17.08;;
47625;SDS011;33342;45.574;9.252;2022-12-18T03:03:29;28.52;;;17.63;;
47625;SDS011;33342;45.574;9.252;2022-12-18T03:06:09;29.38;;;17.83;;
47625;SDS011;33342;45.574;9.252;2022-12-18T03:08:42;31.05;;;17.33;;
47625;SDS011;33342;45.574;9.252;2022-12-18T03:11:14;26.35;;;17.45;;
47625;SDS011;33342;45.574;9.252;2022-12-18T03:16:17;26.15;;;17.08;;
47625;SDS011;33342;45.574;9.252;2022-12-18T03:18:52;26.02;;;16.67;;
47625;SDS011;33342;45.574;9.252;2022-12-18T03:21:32;28.77;;;17.90;;
47625;SDS011;33342;45.574;9.252;2022-12-18T03:24:05;29.08;;;17.38;;
47625;SDS011;33342;45.574;9.252;2022-12-18T03:26:36;30.02;;;17.88;;
47625;SDS011;33342;45.574;9.252;2022-12-18T03:29:09;33.03;;;17.98;;
47625;SDS011;33342;45.574;9.252;2022-12-18T03:31:40;24.23;;;16.30;;
47625;SDS011;33342;45.574;9.252;2022-12-18T03:34:13;28.90;;;16.63;;
47625;SDS011;33342;45.574;9.252;2022-12-18T03:36:45;32.40;;;17.85;;
47625;SDS011;33342;45.574;9.252;2022-12-18T03:39:13;31.30;;;17.90;;
47625;SDS011;33342;45.574;9.252;2022-12-18T03:49:57;31.45;;;18.08;;
47625;SDS011;33342;45.574;9.252;2022-12-18T03:55:15;30.75;;;18.42;;
47625;SDS011;33342;45.574;9.252;2022-12-18T03:57:48;34.20;;;19.75;;
47625;SDS011;33342;45.574;9.252;2022-12-18T04:00:18;44.17;;;21.23;;
47625;SDS011;33342;45.574;9.252;2022-12-18T04:03:03;38.90;;;19.23;;
47625;SDS011;33342;45.574;9.252;2022-12-18T04:05:39;43.90;;;21.52;;
47625;SDS011;33342;45.574;9.252;2022-12-18T04:08:09;53.22;;;23.75;;
47625;SDS011;33342;45.574;9.252;2022-12-18T04:10:41;117.97;;;26.70;;
47625;SDS011;33342;45.574;9.252;2022-12-18T04:13:08;83.20;;;24.10;;
47625;SDS011;33342;45.574;9.252;2022-12-18T04:15:36;75.28;;;24.90;;
47625;SDS011;33342;45.574;9.252;2022-12-18T04:18:09;84.43;;;24.35;;
47625;SDS011;33342;45.574;9.252;2022-12-18T04:20:39;82.05;;;25.52;;
47625;SDS011;33342;45.574;9.252;2022-12-18T04:23:07;57.63;;;22.58;;
47625;SDS011;33342;45.574;9.252;2022-12-18T04:25:36;53.90;;;21.13;;
47625;SDS011;33342;45.574;9.252;2022-12-18T04:28:06;53.28;;;21.20;;
47625;SDS011;33342;45.574;9.252;2022-12-18T04:30:35;42.03;;;20.20;;
47625;SDS011;33342;45.574;9.252;2022-12-18T04:33:02;68.65;;;23.48;;
47625;SDS011;33342;45.574;9.252;2022-12-18T04:35:30;63.95;;;21.90;;
47625;SDS011;33342;45.574;9.252;2022-12-18T04:37:57;61.75;;;22.13;;
47625;SDS011;33342;45.574;9.252;2022-12-18T04:40:26;85.32;;;24.55;;
47625;SDS011;33342;45.574;9.252;2022-12-18T04:42:53;62.83;;;23.08;;
47625;SDS011;33342;45.574;9.252;2022-12-18T04:45:20;62.72;;;20.90;;
47625;SDS011;33342;45.574;9.252;2022-12-18T04:47:47;51.17;;;21.42;;
47625;SDS011;33342;45.574;9.252;2022-12-18T04:50:14;52.75;;;20.27;;
47625;SDS011;33342;45.574;9.252;2022-12-18T04:52:41;48.22;;;20.70;;
47625;SDS011;33342;45.574;9.252;2022-12-18T04:55:08;38.00;;;19.05;;
47625;SDS011;33342;45.574;9.252;2022-12-18T04:57:35;37.38;;;18.48;;
47625;SDS011;33342;45.574;9.252;2022-12-18T05:00:02;49.00;;;20.77;;
47625;SDS011;33342;45.574;9.252;2022-12-18T05:02:30;45.47;;;19.65;;
47625;SDS011;33342;45.574;9.252;2022-12-18T05:04:57;44.15;;;19.10;;
47625;SDS011;33342;45.574;9.252;2022-12-18T05:07:24;42.55;;;20.40;;
47625;SDS011;33342;45.574;9.252;2022-12-18T05:09:51;38.47;;;19.75;;
47625;SDS011;33342;45.574;9.252;2022-12-18T05:12:18;43.00;;;20.27;;
47625;SDS011;33342;45.574;9.252;2022-12-18T05:14:45;43.42;;;20.27;;
47625;SDS011;33342;45.574;9.252;2022-12-18T05:17:12;49.35;;;20.33;;
47625;SDS011;33342;45.574;9.252;2022-12-18T05:19:39;42.90;;;20.50;;
47625;SDS011;33342;45.574;9.252;2022-12-18T05:22:09;35.03;;;18.25;;
47625;SDS011;33342;45.574;9.252;2022-12-18T05:24:36;39.55;;;18.98;;
47625;SDS011;33342;45.574;9.252;2022-12-18T05:27:03;37.83;;;19.15;;
47625;SDS011;33342;45.574;9.252;2022-12-18T05:29:30;38.40;;;18.50;;
47625;SDS011;33342;45.574;9.252;2022-12-18T05:31:57;38.72;;;20.05;;
47625;SDS011;33342;45.574;9.252;2022-12-18T05:34:24;40.10;;;19.40;;
47625;SDS011;33342;45.574;9.252;2022-12-18T05:36:51;41.05;;;20.77;;
47625;SDS011;33342;45.574;9.252;2022-12-18T05:39:18;45.67;;;21.75;;
47625;SDS011;33342;45.574;9.252;2022-12-18T05:41:45;47.83;;;21.02;;
47625;SDS011;33342;45.574;9.252;2022-12-18T05:44:12;42.28;;;21.20;;
47625;SDS011;33342;45.574;9.252;2022-12-18T05:46:42;51.40;;;22.17;;
47625;SDS011;33342;45.574;9.252;2022-12-18T05:49:09;39.20;;;21.23;;
47625;SDS011;33342;45.574;9.252;2022-12-18T05:51:36;44.85;;;21.60;;
47625;SDS011;33342;45.574;9.252;2022-12-18T05:54:03;39.75;;;20.52;;
47625;SDS011;33342;45.574;9.252;2022-12-18T05:56:31;49.22;;;21.98;;
47625;SDS011;33342;45.574;9.252;2022-12-18T05:58:58;48.03;;;22.00;;
47625;SDS011;33342;45.574;9.252;2022-12-18T06:01:26;48.95;;;22.75;;
47625;SDS011;33342;45.574;9.252;2022-12-18T06:03:53;36.25;;;18.73;;
47625;SDS011;33342;45.574;9.252;2022-12-18T06:06:25;47.58;;;23.23;;
47625;SDS011;33342;45.574;9.252;2022-12-18T06:08:54;49.97;;;23.23;;
47625;SDS011;33342;45.574;9.252;2022-12-18T06:11:25;46.13;;;20.75;;
47625;SDS011;33342;45.574;9.252;2022-12-18T06:13:53;46.30;;;22.25;;
47625;SDS011;33342;45.574;9.252;2022-12-18T06:16:24;44.10;;;21.45;;
47625;SDS011;33342;45.574;9.252;2022-12-18T06:18:52;46.67;;;22.20;;
47625;SDS011;33342;45.574;9.252;2022-12-18T06:21:19;43.72;;;22.63;;
47625;SDS011;33342;45.574;9.252;2022-12-18T06:23:46;48.55;;;22.50;;
47625;SDS011;33342;45.574;9.252;2022-12-18T06:26:13;47.25;;;21.80;;
47625;SDS011;33342;45.574;9.252;2022-12-18T06:28:41;51.17;;;24.05;;
47625;SDS011;33342;45.574;9.252;2022-12-18T06:31:09;48.78;;;23.83;;
47625;SDS011;33342;45.574;9.252;2022-12-18T06:33:36;54.30;;;24.27;;
47625;SDS011;33342;45.574;9.252;2022-12-18T06:36:11;55.33;;;24.65;;
47625;SDS011;33342;45.574;9.252;2022-12-18T06:38:41;52.60;;;24.45;;
47625;SDS011;33342;45.574;9.252;2022-12-18T06:41:16;56.95;;;24.67;;
47625;SDS011;33342;45.574;9.252;2022-12-18T06:43:46;62.63;;;25.70;;
47625;SDS011;33342;45.574;9.252;2022-12-18T06:46:13;61.65;;;25.20;;
47625;SDS011;33342;45.574;9.252;2022-12-18T06:48:40;54.05;;;24.75;;
47625;SDS011;33342;45.574;9.252;2022-12-18T06:51:08;59.95;;;24.77;;
47625;SDS011;33342;45.574;9.252;2022-12-18T06:53:35;50.55;;;23.33;;
47625;SDS011;33342;45.574;9.252;2022-12-18T06:56:03;60.15;;;25.65;;
47625;SDS011;33342;45.574;9.252;2022-12-18T06:58:36;45.42;;;24.00;;
47625;SDS011;33342;45.574;9.252;2022-12-18T07:01:05;48.88;;;23.10;;
47625;SDS011;33342;45.574;9.252;2022-12-18T07:03:34;49.20;;;22.80;;
47625;SDS011;33342;45.574;9.252;2022-12-18T07:06:01;50.00;;;24.30;;
47625;SDS011;33342;45.574;9.252;2022-12-18T07:08:28;51.67;;;23.77;;
47625;SDS011;33342;45.574;9.252;2022-12-18T07:10:56;47.83;;;22.75;;
47625;SDS011;33342;45.574;9.252;2022-12-18T07:13:23;43.17;;;21.83;;
47625;SDS011;33342;45.574;9.252;2022-12-18T07:15:50;55.58;;;24.13;;
47625;SDS011;33342;45.574;9.252;2022-12-18T07:18:17;55.33;;;25.02;;
47625;SDS011;33342;45.574;9.252;2022-12-18T07:20:44;56.28;;;25.33;;
47625;SDS011;33342;45.574;9.252;2022-12-18T07:23:13;48.60;;;24.23;;
47625;SDS011;33342;45.574;9.252;2022-12-18T07:25:40;54.53;;;26.55;;
47625;SDS011;33342;45.574;9.252;2022-12-18T07:28:07;56.72;;;23.20;;
47625;SDS011;33342;45.574;9.252;2022-12-18T07:30:41;63.28;;;25.33;;
47625;SDS011;33342;45.574;9.252;2022-12-18T07:33:07;56.58;;;23.15;;
47625;SDS011;33342;45.574;9.252;2022-12-18T07:35:37;60.80;;;25.52;;
47625;SDS011;33342;45.574;9.252;2022-12-18T07:38:05;56.45;;;25.60;;
47625;SDS011;33342;45.574;9.252;2022-12-18T07:40:32;51.15;;;23.90;;
47625;SDS011;33342;45.574;9.252;2022-12-18T07:42:59;56.28;;;24.67;;
47625;SDS011;33342;45.574;9.252;2022-12-18T07:45:26;46.05;;;22.15;;
47625;SDS011;33342;45.574;9.252;2022-12-18T07:47:53;53.25;;;24.55;;
47625;SDS011;33342;45.574;9.252;2022-12-18T07:50:20;51.55;;;22.58;;
47625;SDS011;33342;45.574;9.252;2022-12-18T07:52:47;44.22;;;22.55;;
47625;SDS011;33342;45.574;9.252;2022-12-18T07:55:14;53.80;;;24.73;;
47625;SDS011;33342;45.574;9.252;2022-12-18T07:57:41;50.45;;;24.83;;
47625;SDS011;33342;45.574;9.252;2022-12-18T08:00:19;49.63;;;23.52;;
47625;SDS011;33342;45.574;9.252;2022-12-18T08:02:46;49.03;;;23.83;;
47625;SDS011;33342;45.574;9.252;2022-12-18T08:05:14;56.30;;;25.65;;
47625;SDS011;33342;45.574;9.252;2022-12-18T08:07:41;54.75;;;23.27;;
47625;SDS011;33342;45.574;9.252;2022-12-18T08:10:08;55.78;;;24.38;;
47625;SDS011;33342;45.574;9.252;2022-12-18T08:12:35;53.05;;;24.38;;
47625;SDS011;33342;45.574;9.252;2022-12-18T08:15:02;52.60;;;24.88;;
47625;SDS011;33342;45.574;9.252;2022-12-18T08:17:30;56.97;;;24.13;;
47625;SDS011;33342;45.574;9.252;2022-12-18T08:19:57;53.15;;;23.88;;
47625;SDS011;33342;45.574;9.252;2022-12-18T08:22:24;50.40;;;25.17;;
47625;SDS011;33342;45.574;9.252;2022-12-18T08:24:51;57.97;;;24.48;;
47625;SDS011;33342;45.574;9.252;2022-12-18T08:27:18;52.03;;;23.63;;
47625;SDS011;33342;45.574;9.252;2022-12-18T08:29:55;50.25;;;23.30;;
47625;SDS011;33342;45.574;9.252;2022-12-18T08:32:23;55.45;;;24.77;;
47625;SDS011;33342;45.574;9.252;2022-12-18T08:34:51;53.53;;;24.92;;
47625;SDS011;33342;45.574;9.252;2022-12-18T08:37:18;51.90;;;23.73;;
47625;SDS011;33342;45.574;9.252;2022-12-18T08:39:45;58.58;;;26.08;;
47625;SDS011;33342;45.574;9.252;2022-12-18T08:42:13;58.53;;;26.83;;
47625;SDS011;33342;45.574;9.252;2022-12-18T08:44:58;56.95;;;25.00;;
47625;SDS011;33342;45.574;9.252;2022-12-18T08:47:25;56.17;;;26.13;;
47625;SDS011;33342;45.574;9.252;2022-12-18T08:49:52;45.40;;;23.20;;
47625;SDS011;33342;45.574;9.252;2022-12-18T08:52:19;52.60;;;24.52;;
47625;SDS011;33342;45.574;9.252;2022-12-18T08:54:46;58.50;;;28.25;;
47625;SDS011;33342;45.574;9.252;2022-12-18T08:57:13;60.35;;;25.50;;
47625;SDS011;33342;45.574;9.252;2022-12-18T08:59:40;47.47;;;23.25;;
47625;SDS011;33342;45.574;9.252;2022-12-18T09:02:10;46.65;;;24.02;;
47625;SDS011;33342;45.574;9.252;2022-12-18T09:04:38;44.80;;;22.58;;
47625;SDS011;33342;45.574;9.252;2022-12-18T09:07:06;46.30;;;24.27;;
47625;SDS011;33342;45.574;9.252;2022-12-18T09:09:33;51.40;;;24.52;;
47625;SDS011;33342;45.574;9.252;2022-12-18T09:12:00;49.78;;;24.95;;
47625;SDS011;33342;45.574;9.252;2022-12-18T09:14:27;52.95;;;26.98;;
47625;SDS011;33342;45.574;9.252;2022-12-18T09:16:54;48.80;;;23.63;;
47625;SDS011;33342;45.574;9.252;2022-12-18T09:19:21;42.17;;;22.83;;
47625;SDS011;33342;45.574;9.252;2022-12-18T09:21:48;47.80;;;23.83;;
47625;SDS011;33342;45.574;9.252;2022-12-18T09:24:16;44.08;;;21.73;;
47625;SDS011;33342;45.574;9.252;2022-12-18T09:26:43;44.40;;;23.05;;
47625;SDS011;33342;45.574;9.252;2022-12-18T09:29:13;45.20;;;23.10;;
47625;SDS011;33342;45.574;9.252;2022-12-18T09:31:42;41.85;;;21.70;;
47625;SDS011;33342;45.574;9.252;2022-12-18T09:34:09;45.40;;;22.02;;
47625;SDS011;33342;45.574;9.252;2022-12-18T09:36:36;45.35;;;24.10;;
47625;SDS011;33342;45.574;9.252;2022-12-18T09:39:03;45.88;;;24.17;;
47625;SDS011;33342;45.574;9.252;2022-12-18T09:41:47;44.95;;;23.05;;
47625;SDS011;33342;45.574;9.252;2022-12-18T09:47:20;46.67;;;22.42;;
47625;SDS011;33342;45.574;9.252;2022-12-18T09:49:52;42.83;;;22.75;;
47625;SDS011;33342;45.574;9.252;2022-12-18T09:52:26;40.30;;;20.95;;
47625;SDS011;33342;45.574;9.252;2022-12-18T09:55:05;44.22;;;22.02;;
47625;SDS011;33342;45.574;9.252;2022-12-18T09:57:49;38.45;;;20.20;;
47625;SDS011;33342;45.574;9.252;2022-12-18T10:00:20;39.95;;;21.48;;
47625;SDS011;33342;45.574;9.252;2022-12-18T10:02:50;36.05;;;19.42;;
47625;SDS011;33342;45.574;9.252;2022-12-18T10:05:29;35.90;;;19.30;;
47625;SDS011;33342;45.574;9.252;2022-12-18T10:14:05;42.03;;;23.48;;
47625;SDS011;33342;45.574;9.252;2022-12-18T10:25:28;38.80;;;19.42;;
47625;SDS011;33342;45.574;9.252;2022-12-18T10:28:10;36.17;;;19.67;;
47625;SDS011;33342;45.574;9.252;2022-12-18T10:30:42;35.05;;;19.85;;
47625;SDS011;33342;45.574;9.252;2022-12-18T10:33:17;36.50;;;19.65;;
47625;SDS011;33342;45.574;9.252;2022-12-18T10:35:50;37.17;;;20.38;;
47625;SDS011;33342;45.574;9.252;2022-12-18T10:43:15;34.17;;;19.13;;
47625;SDS011;33342;45.574;9.252;2022-12-18T10:46:04;34.55;;;18.75;;
47625;SDS011;33342;45.574;9.252;2022-12-18T10:51:24;34.70;;;18.77;;
47625;SDS011;33342;45.574;9.252;2022-12-18T10:54:06;36.03;;;18.65;;
47625;SDS011;33342;45.574;9.252;2022-12-18T10:56:41;37.95;;;19.63;;
47625;SDS011;33342;45.574;9.252;2022-12-18T10:59:10;38.47;;;21.02;;
47625;SDS011;33342;45.574;9.252;2022-12-18T11:01:52;34.53;;;18.40;;
47625;SDS011;33342;45.574;9.252;2022-12-18T11:04:25;35.83;;;19.98;;
47625;SDS011;33342;45.574;9.252;2022-12-18T11:07:04;35.67;;;18.45;;
47625;SDS011;33342;45.574;9.252;2022-12-18T11:12:08;38.65;;;18.55;;
47625;SDS011;33342;45.574;9.252;2022-12-18T11:14:45;31.27;;;17.90;;
47625;SDS011;33342;45.574;9.252;2022-12-18T11:17:23;31.02;;;18.10;;
47625;SDS011;33342;45.574;9.252;2022-12-18T11:20:04;37.97;;;20.20;;
47625;SDS011;33342;45.574;9.252;2022-12-18T11:22:33;36.08;;;19.13;;
47625;SDS011;33342;45.574;9.252;2022-12-18T11:25:06;32.83;;;19.05;;
47625;SDS011;33342;45.574;9.252;2022-12-18T11:28:01;34.58;;;18.75;;
47625;SDS011;33342;45.574;9.252;2022-12-18T11:30:48;33.45;;;18.60;;
47625;SDS011;33342;45.574;9.252;2022-12-18T11:33:17;32.38;;;18.73;;
47625;SDS011;33342;45.574;9.252;2022-12-18T11:38:21;32.13;;;18.02;;
47625;SDS011;33342;45.574;9.252;2022-12-18T11:40:51;30.80;;;15.65;;
47625;SDS011;33342;45.574;9.252;2022-12-18T11:46:01;33.30;;;21.33;;
47625;SDS011;33342;45.574;9.252;2022-12-18T11:48:45;35.10;;;20.25;;
47625;SDS011;33342;45.574;9.252;2022-12-18T11:51:31;33.38;;;19.70;;
47625;SDS011;33342;45.574;9.252;2022-12-18T11:54:11;35.42;;;20.67;;
47625;SDS011;33342;45.574;9.252;2022-12-18T11:56:56;34.00;;;20.50;;
47625;SDS011;33342;45.574;9.252;2022-12-18T12:02:34;34.20;;;20.95;;
47625;SDS011;33342;45.574;9.252;2022-12-18T12:13:21;37.60;;;21.88;;
47625;SDS011;33342;45.574;9.252;2022-12-18T12:33:34;40.72;;;22.63;;
47625;SDS011;33342;45.574;9.252;2022-12-18T12:36:23;35.25;;;20.50;;
47625;SDS011;33342;45.574;9.252;2022-12-18T12:38:54;36.92;;;21.83;;
47625;SDS011;33342;45.574;9.252;2022-12-18T12:41:24;47.00;;;25.60;;
47625;SDS011;33342;45.574;9.252;2022-12-18T12:44:14;41.35;;;24.08;;
47625;SDS011;33342;45.574;9.252;2022-12-18T12:46:48;38.00;;;21.52;;
47625;SDS011;33342;45.574;9.252;2022-12-18T12:49:18;37.13;;;21.08;;
47625;SDS011;33342;45.574;9.252;2022-12-18T12:51:52;40.35;;;21.77;;
47625;SDS011;33342;45.574;9.252;2022-12-18T12:54:41;33.13;;;19.67;;
47625;SDS011;33342;45.574;9.252;2022-12-18T12:57:29;37.38;;;20.80;;
47625;SDS011;33342;45.574;9.252;2022-12-18T13:02:47;35.58;;;21.00;;
47625;SDS011;33342;45.574;9.252;2022-12-18T13:11:28;32.90;;;19.83;;
47625;SDS011;33342;45.574;9.252;2022-12-18T13:22:35;35.42;;;20.42;;
47625;SDS011;33342;45.574;9.252;2022-12-18T13:38:23;35.05;;;20.20;;
47625;SDS011;33342;45.574;9.252;2022-12-18T13:41:00;34.97;;;20.60;;
47625;SDS011;33342;45.574;9.252;2022-12-18T13:43:57;34.08;;;20.30;;
47625;SDS011;33342;45.574;9.252;2022-12-18T13:47:25;35.28;;;20.33;;
47625;SDS011;33342;45.574;9.252;2022-12-18T13:50:00;35.53;;;21.25;;
47625;SDS011;33342;45.574;9.252;2022-12-18T13:52:37;32.22;;;20.15;;
47625;SDS011;33342;45.574;9.252;2022-12-18T13:55:07;35.67;;;20.10;;
47625;SDS011;33342;45.574;9.252;2022-12-18T13:57:43;36.58;;;20.77;;
47625;SDS011;33342;45.574;9.252;2022-12-18T14:00:27;35.97;;;21.13;;
47625;SDS011;33342;45.574;9.252;2022-12-18T14:02:56;34.45;;;21.23;;
47625;SDS011;33342;45.574;9.252;2022-12-18T14:05:29;37.88;;;20.65;;
47625;SDS011;33342;45.574;9.252;2022-12-18T14:08:03;32.80;;;19.85;;
47625;SDS011;33342;45.574;9.252;2022-12-18T14:10:34;40.03;;;21.15;;
47625;SDS011;33342;45.574;9.252;2022-12-18T14:13:15;35.92;;;22.17;;
47625;SDS011;33342;45.574;9.252;2022-12-18T14:15:50;33.38;;;19.67;;
47625;SDS011;33342;45.574;9.252;2022-12-18T14:23:50;33.40;;;22.00;;
47625;SDS011;33342;45.574;9.252;2022-12-18T14:26:31;38.95;;;21.70;;
47625;SDS011;33342;45.574;9.252;2022-12-18T14:29:00;36.45;;;20.98;;
47625;SDS011;33342;45.574;9.252;2022-12-18T14:31:44;34.78;;;20.38;;
47625;SDS011;33342;45.574;9.252;2022-12-18T14:34:15;31.08;;;20.33;;
47625;SDS011;33342;45.574;9.252;2022-12-18T14:36:51;35.63;;;19.92;;
47625;SDS011;33342;45.574;9.252;2022-12-18T14:39:19;33.72;;;20.88;;
47625;SDS011;33342;45.574;9.252;2022-12-18T14:41:48;33.97;;;20.55;;
47625;SDS011;33342;45.574;9.252;2022-12-18T14:44:16;33.58;;;19.85;;
47625;SDS011;33342;45.574;9.252;2022-12-18T14:46:43;33.40;;;19.23;;
47625;SDS011;33342;45.574;9.252;2022-12-18T14:49:26;32.05;;;19.35;;
47625;SDS011;33342;45.574;9.252;2022-12-18T14:51:54;30.02;;;18.52;;
47625;SDS011;33342;45.574;9.252;2022-12-18T14:54:27;34.50;;;19.60;;
47625;SDS011;33342;45.574;9.252;2022-12-18T14:59:23;30.23;;;19.38;;
47625;SDS011;33342;45.574;9.252;2022-12-18T15:02:09;32.42;;;19.77;;
47625;SDS011;33342;45.574;9.252;2022-12-18T15:04:42;34.67;;;21.15;;
47625;SDS011;33342;45.574;9.252;2022-12-18T15:09:37;32.40;;;20.65;;
47625;SDS011;33342;45.574;9.252;2022-12-18T15:15:03;34.85;;;20.42;;
47625;SDS011;33342;45.574;9.252;2022-12-18T15:17:31;37.05;;;21.25;;
47625;SDS011;33342;45.574;9.252;2022-12-18T15:20:02;33.78;;;21.40;;
47625;SDS011;33342;45.574;9.252;2022-12-18T15:22:36;37.85;;;22.02;;
47625;SDS011;33342;45.574;9.252;2022-12-18T15:25:19;37.30;;;21.13;;
47625;SDS011;33342;45.574;9.252;2022-12-18T15:28:04;36.90;;;21.88;;
47625;SDS011;33342;45.574;9.252;2022-12-18T15:33:46;39.47;;;20.98;;
47625;SDS011;33342;45.574;9.252;2022-12-18T15:36:29;36.95;;;21.83;;
47625;SDS011;33342;45.574;9.252;2022-12-18T15:38:56;38.97;;;22.00;;
47625;SDS011;33342;45.574;9.252;2022-12-18T15:41:31;42.40;;;21.77;;
47625;SDS011;33342;45.574;9.252;2022-12-18T15:44:02;38.95;;;22.65;;
47625;SDS011;33342;45.574;9.252;2022-12-18T15:46:47;37.72;;;21.73;;
47625;SDS011;33342;45.574;9.252;2022-12-18T15:49:14;36.35;;;21.48;;
47625;SDS011;33342;45.574;9.252;2022-12-18T15:51:41;40.15;;;22.60;;
47625;SDS011;33342;45.574;9.252;2022-12-18T15:54:10;39.67;;;23.38;;
47625;SDS011;33342;45.574;9.252;2022-12-18T15:56:40;38.92;;;21.98;;
47625;SDS011;33342;45.574;9.252;2022-12-18T15:59:25;35.90;;;22.10;;
47625;SDS011;33342;45.574;9.252;2022-12-18T16:01:52;40.72;;;23.55;;
47625;SDS011;33342;45.574;9.252;2022-12-18T16:04:20;41.97;;;23.50;;
47625;SDS011;33342;45.574;9.252;2022-12-18T16:06:48;41.13;;;24.55;;
47625;SDS011;33342;45.574;9.252;2022-12-18T16:09:36;39.90;;;23.70;;
47625;SDS011;33342;45.574;9.252;2022-12-18T16:12:03;42.67;;;25.38;;
47625;SDS011;33342;45.574;9.252;2022-12-18T16:14:31;46.90;;;25.02;;
47625;SDS011;33342;45.574;9.252;2022-12-18T16:17:03;41.42;;;24.20;;
47625;SDS011;33342;45.574;9.252;2022-12-18T16:19:35;39.08;;;24.13;;
47625;SDS011;33342;45.574;9.252;2022-12-18T16:22:02;40.95;;;24.05;;
47625;SDS011;33342;45.574;9.252;2022-12-18T16:24:30;43.63;;;22.98;;
47625;SDS011;33342;45.574;9.252;2022-12-18T16:26:59;44.22;;;24.33;;
47625;SDS011;33342;45.574;9.252;2022-12-18T16:29:27;44.17;;;24.45;;
47625;SDS011;33342;45.574;9.252;2022-12-18T16:31:56;43.95;;;24.60;;
47625;SDS011;33342;45.574;9.252;2022-12-18T16:37:02;47.47;;;25.80;;
47625;SDS011;33342;45.574;9.252;2022-12-18T16:39:32;45.80;;;25.08;;
47625;SDS011;33342;45.574;9.252;2022-12-18T16:42:01;45.28;;;24.63;;
47625;SDS011;33342;45.574;9.252;2022-12-18T16:44:32;44.05;;;24.88;;
47625;SDS011;33342;45.574;9.252;2022-12-18T16:46:59;48.05;;;26.88;;
47625;SDS011;33342;45.574;9.252;2022-12-18T16:49:28;47.60;;;27.17;;
47625;SDS011;33342;45.574;9.252;2022-12-18T16:51:56;47.97;;;26.58;;
47625;SDS011;33342;45.574;9.252;2022-12-18T16:54:23;44.38;;;25.35;;
47625;SDS011;33342;45.574;9.252;2022-12-18T16:56:50;42.58;;;26.08;;
47625;SDS011;33342;45.574;9.252;2022-12-18T16:59:18;46.10;;;27.70;;
47625;SDS011;33342;45.574;9.252;2022-12-18T17:01:45;46.92;;;27.33;;
47625;SDS011;33342;45.574;9.252;2022-12-18T17:04:13;51.70;;;29.52;;
47625;SDS011;33342;45.574;9.252;2022-12-18T17:06:43;48.65;;;29.27;;
47625;SDS011;33342;45.574;9.252;2022-12-18T17:09:11;55.20;;;29.40;;
47625;SDS011;33342;45.574;9.252;2022-12-18T17:11:41;47.40;;;28.90;;
47625;SDS011;33342;45.574;9.252;2022-12-18T17:14:16;50.28;;;27.20;;
47625;SDS011;33342;45.574;9.252;2022-12-18T17:16:45;48.35;;;28.48;;